TimeCST,TemperatureF,Dew PointF,Humidity,Sea Level PressureIn,VisibilityMPH,Wind Direction,Wind SpeedMPH,Gust SpeedMPH,PrecipitationIn,Events,Conditions,WindDirDegrees,DateUTC
12:15 AM,43.0,26.4,52,30.30,10.0,South,6.9,-,N/A,,Scattered Clouds,190,2012-11-14 06:15:00
12:35 AM,41.9,26.1,53,30.30,10.0,South,6.9,-,N/A,,Clear,190,2012-11-14 06:35:00
12:55 AM,42.1,26.1,53,30.30,10.0,South,6.9,-,N/A,,Clear,180,2012-11-14 06:55:00
1:15 AM,41.4,26.2,55,30.30,10.0,South,5.8,-,N/A,,Clear,180,2012-11-14 07:15:00
1:35 AM,41.9,26.2,54,30.30,10.0,South,6.9,-,N/A,,Clear,170,2012-11-14 07:35:00
1:55 AM,41.2,25.9,55,30.30,10.0,South,8.1,-,N/A,,Clear,180,2012-11-14 07:55:00
2:15 AM,39.6,25.7,58,30.30,10.0,South,5.8,-,N/A,,Clear,180,2012-11-14 08:15:00
2:35 AM,38.3,25.5,60,30.30,10.0,South,6.9,-,N/A,,Clear,180,2012-11-14 08:35:00
2:55 AM,38.3,25.7,61,30.31,10.0,South,5.8,-,N/A,,Clear,180,2012-11-14 08:55:00
3:15 AM,37.4,25.3,62,30.31,10.0,South,5.8,-,N/A,,Clear,170,2012-11-14 09:15:00
3:35 AM,36.9,25.0,62,30.31,10.0,South,3.5,-,N/A,,Clear,170,2012-11-14 09:35:00
3:55 AM,34.7,24.8,67,30.30,10.0,Calm,Calm,-,N/A,,Clear,0,2012-11-14 09:55:00
4:15 AM,35.6,25.2,66,30.30,10.0,SSE,3.5,-,N/A,,Clear,160,2012-11-14 10:15:00
4:35 AM,36.0,25.0,64,30.30,10.0,SSE,4.6,-,N/A,,Clear,160,2012-11-14 10:35:00
4:55 AM,34.5,24.8,68,30.31,10.0,Calm,Calm,-,N/A,,Clear,0,2012-11-14 10:55:00
5:15 AM,33.4,24.3,69,30.31,10.0,Calm,Calm,-,N/A,,Clear,0,2012-11-14 11:15:00
5:35 AM,32.2,25.0,75,30.31,10.0,Calm,Calm,-,N/A,,Clear,0,2012-11-14 11:35:00
5:55 AM,31.8,24.8,75,30.31,10.0,SSE,3.5,-,N/A,,Clear,150,2012-11-14 11:55:00
6:15 AM,30.0,23.4,76,30.31,10.0,Calm,Calm,-,N/A,,Clear,0,2012-11-14 12:15:00
6:35 AM,30.9,24.3,76,30.31,10.0,SE,4.6,-,N/A,,Clear,140,2012-11-14 12:35:00
6:55 AM,31.5,25.2,78,30.31,10.0,Calm,Calm,-,N/A,,Clear,0,2012-11-14 12:55:00
7:15 AM,31.5,24.4,75,30.32,10.0,SSE,3.5,-,N/A,,Clear,150,2012-11-14 13:15:00
7:35 AM,30.7,23.9,76,30.32,10.0,SSE,4.6,-,N/A,,Clear,160,2012-11-14 13:35:00
7:55 AM,32.5,25.3,75,30.32,10.0,South,5.8,-,N/A,,Clear,170,2012-11-14 13:55:00
8:15 AM,34.9,25.7,69,30.32,10.0,SSE,6.9,-,N/A,,Clear,160,2012-11-14 14:15:00
8:35 AM,36.7,25.7,64,30.32,10.0,South,8.1,-,N/A,,Clear,170,2012-11-14 14:35:00
8:55 AM,38.5,25.7,60,30.32,10.0,South,8.1,-,N/A,,Clear,180,2012-11-14 14:55:00
9:15 AM,40.8,25.3,54,30.32,10.0,South,10.4,-,N/A,,Clear,190,2012-11-14 15:15:00
9:35 AM,42.8,25.3,50,30.32,10.0,SSW,9.2,-,N/A,,Clear,200,2012-11-14 15:35:00
9:55 AM,44.4,25.0,46,30.32,10.0,SSW,10.4,-,N/A,,Clear,210,2012-11-14 15:55:00
10:15 AM,46.4,25.0,43,30.32,10.0,SSW,10.4,-,N/A,,Clear,200,2012-11-14 16:15:00
10:35 AM,47.8,26.1,43,30.32,10.0,South,8.1,-,N/A,,Clear,190,2012-11-14 16:35:00
10:55 AM,49.6,23.5,36,30.31,10.0,South,10.4,-,N/A,,Clear,190,2012-11-14 16:55:00
11:15 AM,51.1,23.0,33,30.31,10.0,South,9.2,-,N/A,,Clear,190,2012-11-14 17:15:00
11:35 AM,52.3,23.0,32,30.30,10.0,South,8.1,-,N/A,,Clear,180,2012-11-14 17:35:00
11:55 AM,54.0,21.9,29,30.29,10.0,SSW,11.5,-,N/A,,Clear,210,2012-11-14 17:55:00
12:15 PM,54.7,20.1,26,30.28,10.0,South,12.7,-,N/A,,Clear,190,2012-11-14 18:15:00
12:35 PM,55.8,19.9,25,30.27,10.0,SSW,12.7,-,N/A,,Clear,210,2012-11-14 18:35:00
12:55 PM,57.2,19.6,23,30.26,10.0,South,11.5,18.4,N/A,,Clear,190,2012-11-14 18:55:00
1:15 PM,57.7,17.6,21,30.25,10.0,South,13.8,-,N/A,,Clear,190,2012-11-14 19:15:00
1:35 PM,58.5,15.4,19,30.24,10.0,SSW,16.1,-,N/A,,Clear,200,2012-11-14 19:35:00
1:55 PM,58.3,14.4,18,30.24,10.0,SSW,16.1,20.7,N/A,,Clear,210,2012-11-14 19:55:00
2:15 PM,58.5,14.4,18,30.22,10.0,SSW,13.8,18.4,N/A,,Clear,200,2012-11-14 20:15:00
2:35 PM,58.6,15.1,18,30.22,10.0,SSW,16.1,-,N/A,,Clear,200,2012-11-14 20:35:00
2:55 PM,58.1,14.9,18,30.22,10.0,SSW,13.8,-,N/A,,Clear,200,2012-11-14 20:55:00
3:15 PM,56.5,17.4,22,30.22,10.0,South,12.7,16.1,N/A,,Clear,190,2012-11-14 21:15:00
3:35 PM,56.5,17.6,22,30.22,10.0,South,11.5,-,N/A,,Clear,180,2012-11-14 21:35:00
3:55 PM,55.9,18.3,23,30.21,10.0,South,11.5,-,N/A,,Clear,180,2012-11-14 21:55:00
4:15 PM,55.8,18.3,23,30.20,10.0,South,9.2,-,N/A,,Clear,180,2012-11-14 22:15:00
4:35 PM,54.9,19.9,26,30.20,10.0,South,6.9,-,N/A,,Clear,170,2012-11-14 22:35:00
4:55 PM,53.6,19.8,27,30.19,10.0,South,6.9,-,N/A,,Clear,170,2012-11-14 22:55:00
5:15 PM,52.0,20.3,29,30.19,10.0,SSE,5.8,-,N/A,,Clear,160,2012-11-14 23:15:00
5:35 PM,51.1,21.2,31,30.19,10.0,South,5.8,-,N/A,,Clear,170,2012-11-14 23:35:00
5:55 PM,49.6,22.8,35,30.19,10.0,South,6.9,-,N/A,,Clear,180,2012-11-14 23:55:00
6:15 PM,50.4,21.9,33,30.19,10.0,South,8.1,-,N/A,,Clear,180,2012-11-15 00:15:00
6:35 PM,50.9,20.7,30,30.19,10.0,South,8.1,-,N/A,,Clear,180,2012-11-15 00:35:00
6:55 PM,50.5,21.0,31,30.19,10.0,South,6.9,-,N/A,,Clear,170,2012-11-15 00:55:00
7:15 PM,51.1,21.0,31,30.19,10.0,South,9.2,-,N/A,,Clear,170,2012-11-15 01:15:00
7:35 PM,49.8,21.7,33,30.19,10.0,SSE,8.1,-,N/A,,Clear,160,2012-11-15 01:35:00
7:55 PM,48.4,22.8,37,30.19,10.0,SSE,6.9,-,N/A,,Clear,160,2012-11-15 01:55:00
8:35 PM,46.9,23.7,40,30.19,10.0,South,11.5,-,N/A,,Clear,170,2012-11-15 02:35:00
8:55 PM,47.3,23.5,39,30.20,10.0,South,10.4,-,N/A,,Clear,170,2012-11-15 02:55:00
9:15 PM,46.6,23.7,41,30.20,10.0,South,11.5,-,N/A,,Clear,170,2012-11-15 03:15:00
9:35 PM,46.4,23.9,41,30.20,10.0,South,10.4,-,N/A,,Clear,170,2012-11-15 03:35:00
9:55 PM,45.5,24.4,44,30.20,10.0,South,9.2,-,N/A,,Clear,170,2012-11-15 03:55:00
10:15 PM,45.0,24.4,45,30.20,10.0,South,9.2,-,N/A,,Clear,170,2012-11-15 04:15:00
10:35 PM,44.8,24.4,45,30.20,10.0,South,9.2,-,N/A,,Clear,180,2012-11-15 04:35:00
10:55 PM,43.9,24.8,47,30.21,10.0,South,5.8,-,N/A,,Clear,180,2012-11-15 04:55:00
11:15 PM,43.2,25.2,49,30.20,10.0,South,5.8,-,N/A,,Clear,180,2012-11-15 05:15:00
11:35 PM,43.2,25.3,49,30.21,10.0,South,5.8,-,N/A,,Clear,180,2012-11-15 05:35:00
11:55 PM,42.8,25.7,51,30.21,10.0,South,5.8,-,N/A,,Clear,180,2012-11-15 05:55:00